Time;durP1;ratioP1;P1;durP2;ratioP2;P2;SDS_P1;SDS_P2;PMS_P1;PMS_P2;Temp;Humidity;BMP_temperature;BMP_pressure;BME280_temperature;BME280_humidity;BME280_pressure;Samples;Min_cycle;Max_cycle;Signal;HPM_P1;HPM_P2
2020/12/24 00:00:15;;;;;;;1.58;0.40;;;10.40;52.70;;;;;;5012888;28;20080;-72
2020/12/24 00:02:42;;;;;;;1.95;0.50;;;10.40;53.20;;;;;;5010355;28;20057;-71
2020/12/24 00:05:11;;;;;;;8.13;0.98;;;10.30;53.00;;;;;;5012004;28;20056;-71
2020/12/24 00:07:39;;;;;;;2.33;0.50;;;10.30;52.70;;;;;;5013683;28;20053;-72
2020/12/24 00:10:06;;;;;;;4.05;1.35;;;10.30;54.20;;;;;;5012012;28;20095;-71
2020/12/24 00:12:33;;;;;;;1.83;0.82;;;10.30;55.40;;;;;;5010337;28;20049;-71
2020/12/24 00:15:00;;;;;;;4.45;0.98;;;10.10;57.20;;;;;;5008985;28;20376;-71
2020/12/24 00:17:27;;;;;;;1.25;0.70;;;10.10;57.30;;;;;;5013881;28;20053;-72
2020/12/24 00:19:54;;;;;;;1.48;0.70;;;10.20;57.10;;;;;;5014472;28;20050;-71
2020/12/24 00:22:22;;;;;;;1.98;0.70;;;10.20;56.60;;;;;;5010125;28;20504;-71
2020/12/24 00:24:49;;;;;;;6.07;1.25;;;10.10;55.50;;;;;;5010324;28;20472;-70
2020/12/24 00:27:16;;;;;;;0.90;0.50;;;10.20;53.50;;;;;;5010885;28;20056;-72
2020/12/24 00:29:43;;;;;;;1.73;0.50;;;10.30;49.80;;;;;;5012252;28;20052;-72
2020/12/24 00:32:10;;;;;;;1.85;0.52;;;10.40;44.20;;;;;;5012158;28;20046;-70
2020/12/24 00:34:40;;;;;;;2.38;0.43;;;10.50;37.70;;;;;;5013166;28;20054;-73
2020/12/24 00:37:09;;;;;;;1.17;0.30;;;10.90;19.20;;;;;;4991493;28;20042;-73
2020/12/24 00:39:39;;;;;;;2.75;0.50;;;10.90;17.00;;;;;;4993751;28;20058;-73
2020/12/24 00:42:07;;;;;;;1.65;0.38;;;11.00;15.40;;;;;;5010321;28;20056;-74
2020/12/24 00:44:38;;;;;;;0.55;0.30;;;10.90;13.50;;;;;;5012003;28;20053;-73
2020/12/24 00:47:07;;;;;;;1.05;0.40;;;10.90;13.10;;;;;;4991451;28;20092;-73
2020/12/24 00:49:37;;;;;;;2.85;0.50;;;10.80;14.20;;;;;;4994838;28;20054;-72
2020/12/24 00:52:05;;;;;;;4.45;0.40;;;10.60;16.00;;;;;;5009353;28;20053;-73
2020/12/24 00:54:34;;;;;;;3.28;0.50;;;10.40;19.50;;;;;;5009542;28;20504;-73
2020/12/24 00:57:07;;;;;;;1.95;0.40;;;10.20;23.60;;;;;;4992551;28;20052;-72
2020/12/24 00:59:35;;;;;;;0.98;0.35;;;10.10;23.60;;;;;;5011720;28;20056;-72
2020/12/24 01:02:05;;;;;;;1.55;0.73;;;10.10;25.60;;;;;;5013267;28;20046;-72
2020/12/24 01:04:34;;;;;;;1.48;0.43;;;10.20;20.70;;;;;;5010996;28;20064;-72
2020/12/24 01:07:01;;;;;;;1.70;0.40;;;10.10;20.40;;;;;;5011141;28;20129;-72
2020/12/24 01:09:28;;;;;;;2.58;0.25;;;10.00;19.50;;;;;;5010767;28;20045;-71
2020/12/24 01:11:56;;;;;;;3.00;0.50;;;9.90;20.80;;;;;;4992849;28;20073;-72
2020/12/24 01:14:25;;;;;;;1.85;0.30;;;9.80;20.60;;;;;;5010269;28;20400;-69
2020/12/24 01:16:54;;;;;;;1.25;0.30;;;9.80;19.10;;;;;;5009594;28;20158;-71
2020/12/24 01:19:24;;;;;;;0.40;0.22;;;9.80;18.10;;;;;;5012569;28;20066;-70
2020/12/24 01:21:51;;;;;;;1.85;0.28;;;9.80;18.00;;;;;;5011292;28;20049;-71
2020/12/24 01:24:19;;;;;;;0.35;0.20;;;9.80;18.40;;;;;;5007747;28;20524;-71
2020/12/24 01:26:47;;;;;;;1.00;0.30;;;9.80;19.50;;;;;;5009863;28;20041;-72
2020/12/24 01:29:15;;;;;;;0.55;0.40;;;9.80;20.30;;;;;;5012929;28;20460;-69
2020/12/24 01:31:46;;;;;;;2.15;0.45;;;9.90;21.20;;;;;;5009446;28;20354;-73
2020/12/24 01:34:20;;;;;;;0.80;0.22;;;9.80;24.60;;;;;;5009385;28;20053;-71
2020/12/24 01:36:47;;;;;;;0.43;0.32;;;9.70;27.20;;;;;;5008630;28;20053;-70
2020/12/24 01:39:16;;;;;;;1.10;0.35;;;9.70;26.60;;;;;;5014568;28;20582;-71
2020/12/24 01:41:50;;;;;;;0.77;0.40;;;9.70;26.70;;;;;;5010552;28;20084;-72
2020/12/24 01:44:18;;;;;;;0.80;0.40;;;9.70;27.40;;;;;;5008861;28;20133;-71
2020/12/24 01:46:48;;;;;;;1.05;0.30;;;9.60;29.50;;;;;;5007408;28;20077;-71
2020/12/24 01:49:22;;;;;;;3.40;0.50;;;9.50;34.60;;;;;;5007921;28;20100;-72
2020/12/24 01:51:51;;;;;;;0.35;0.22;;;9.40;39.90;;;;;;5001778;28;20758;-71
2020/12/24 01:54:20;;;;;;;0.63;0.35;;;9.30;41.70;;;;;;5009645;28;20145;-71
2020/12/24 01:56:48;;;;;;;0.55;0.30;;;9.20;41.50;;;;;;5007792;28;20046;-72
2020/12/24 01:59:17;;;;;;;0.80;0.28;;;9.20;36.10;;;;;;5011026;28;20046;-72
2020/12/24 02:01:47;;;;;;;0.38;0.30;;;9.10;40.00;;;;;;5011667;28;20144;-71
2020/12/24 02:04:15;;;;;;;1.33;0.70;;;9.00;42.20;;;;;;5010590;28;20562;-72
2020/12/24 02:06:43;;;;;;;2.58;0.60;;;9.00;47.00;;;;;;4993510;28;20038;-71
2020/12/24 02:09:11;;;;;;;1.73;0.50;;;9.00;50.90;;;;;;5007878;28;20046;-72
2020/12/24 02:11:38;;;;;;;1.55;0.60;;;8.90;52.90;;;;;;5013475;28;20057;-70
2020/12/24 02:14:05;;;;;;;1.02;0.57;;;8.80;58.00;;;;;;5007386;28;20050;-72
2020/12/24 02:16:34;;;;;;;4.05;0.70;;;8.70;59.80;;;;;;5002534;28;20052;-71
2020/12/24 02:19:02;;;;;;;2.72;1.17;;;8.70;63.40;;;;;;5008177;28;20053;-72
2020/12/24 02:21:29;;;;;;;2.45;0.90;;;8.70;65.50;;;;;;5010740;28;20056;-71
2020/12/24 02:23:56;;;;;;;1.38;0.60;;;8.70;66.00;;;;;;5010548;28;21860;-69
2020/12/24 02:26:23;;;;;;;1.38;0.60;;;8.70;66.50;;;;;;5005968;28;20038;-72
2020/12/24 02:28:50;;;;;;;1.45;0.50;;;8.70;65.50;;;;;;5009876;28;20683;-72
2020/12/24 02:31:17;;;;;;;2.95;0.70;;;8.70;65.50;;;;;;5008798;28;20392;-71
2020/12/24 02:33:44;;;;;;;1.55;0.43;;;8.70;64.40;;;;;;5007321;28;20061;-71
2020/12/24 02:36:10;;;;;;;3.05;0.70;;;8.70;63.80;;;;;;5008928;28;20046;-71
2020/12/24 02:38:38;;;;;;;1.10;0.60;;;8.70;64.80;;;;;;5010498;28;20423;-72
2020/12/24 02:41:05;;;;;;;0.73;0.50;;;8.60;65.40;;;;;;5010002;28;20053;-71
2020/12/24 02:43:32;;;;;;;2.45;0.52;;;8.50;65.30;;;;;;5006659;28;20060;-69
2020/12/24 02:45:59;;;;;;;3.42;0.95;;;8.50;66.70;;;;;;5003772;28;20077;-70
2020/12/24 02:48:25;;;;;;;2.33;0.50;;;8.40;66.90;;;;;;5012741;28;20397;-71
2020/12/24 02:50:52;;;;;;;1.98;0.50;;;8.50;69.10;;;;;;5006963;28;20056;-71
2020/12/24 02:53:19;;;;;;;1.67;0.80;;;8.40;69.30;;;;;;5010417;28;20046;-71
2020/12/24 02:55:47;;;;;;;2.70;0.80;;;8.40;70.80;;;;;;5005361;28;20068;-71
2020/12/24 02:58:13;;;;;;;1.67;0.70;;;8.50;70.20;;;;;;5011002;28;20567;-71
2020/12/24 03:00:40;;;;;;;3.15;0.80;;;8.50;68.70;;;;;;5009261;28;20455;-72
2020/12/24 03:03:07;;;;;;;2.60;0.65;;;8.40;68.20;;;;;;5008406;28;20046;-69
2020/12/24 03:05:34;;;;;;;1.08;0.40;;;8.50;64.80;;;;;;5006922;28;20049;-73
2020/12/24 03:08:01;;;;;;;2.25;0.57;;;8.50;61.10;;;;;;5014191;28;20048;-72
2020/12/24 03:10:28;;;;;;;1.10;0.40;;;8.60;58.30;;;;;;5016397;28;20045;-72
2020/12/24 03:12:56;;;;;;;3.83;0.70;;;8.60;51.60;;;;;;5011257;28;20045;-72
2020/12/24 03:15:22;;;;;;;2.33;0.57;;;8.60;46.00;;;;;;5010397;28;20045;-69
2020/12/24 03:17:49;;;;;;;4.03;0.90;;;8.60;41.00;;;;;;5014590;28;20161;-72
2020/12/24 03:20:16;;;;;;;4.07;1.15;;;8.70;38.00;;;;;;5013853;28;20041;-71
2020/12/24 03:22:43;;;;;;;2.83;0.57;;;8.60;36.00;;;;;;5010701;28;20045;-71
2020/12/24 03:25:10;;;;;;;2.75;0.30;;;8.60;32.60;;;;;;5010188;28;20073;-71
2020/12/24 03:27:37;;;;;;;2.53;0.57;;;8.60;32.50;;;;;;5013652;28;20420;-71
2020/12/24 03:30:07;;;;;;;3.45;0.40;;;8.60;32.60;;;;;;5013773;28;20056;-70
2020/12/24 03:32:34;;;;;;;1.90;0.30;;;8.60;31.90;;;;;;5015151;28;20060;-71
2020/12/24 03:35:01;;;;;;;0.98;0.40;;;8.60;31.80;;;;;;5011000;28;20060;-72
2020/12/24 03:37:28;;;;;;;1.10;0.20;;;8.50;34.30;;;;;;5010245;28;20708;-72
2020/12/24 03:39:55;;;;;;;1.25;0.40;;;8.50;35.20;;;;;;5012742;28;20046;-72
2020/12/24 03:42:22;;;;;;;1.40;0.30;;;8.40;36.10;;;;;;5014813;28;20050;-71
2020/12/24 03:44:49;;;;;;;0.70;0.30;;;8.50;34.80;;;;;;5009407;28;20053;-69
2020/12/24 03:47:16;;;;;;;1.10;0.32;;;8.40;35.60;;;;;;5011227;28;20053;-73
2020/12/24 03:49:43;;;;;;;0.95;0.30;;;8.40;36.70;;;;;;5011950;28;20416;-72
2020/12/24 03:52:10;;;;;;;0.95;0.50;;;8.30;37.20;;;;;;5011453;28;20052;-72
2020/12/24 03:54:37;;;;;;;0.75;0.35;;;8.30;37.20;;;;;;5012244;28;20053;-71
2020/12/24 03:57:03;;;;;;;3.00;0.30;;;8.30;38.00;;;;;;5011980;28;20093;-71
2020/12/24 03:59:31;;;;;;;2.83;0.30;;;8.20;39.10;;;;;;5012812;28;20053;-72
2020/12/24 04:01:57;;;;;;;1.80;0.30;;;8.20;39.20;;;;;;5009848;28;20061;-72
2020/12/24 04:04:25;;;;;;;0.77;0.30;;;8.10;40.60;;;;;;5010893;28;20057;-70
2020/12/24 04:06:52;;;;;;;1.33;0.20;;;8.00;42.10;;;;;;5007585;28;20049;-71
2020/12/24 04:09:19;;;;;;;1.08;0.30;;;8.00;43.70;;;;;;5013784;28;20046;-72
2020/12/24 04:11:46;;;;;;;2.42;0.32;;;7.90;45.40;;;;;;5010371;28;20053;-73
2020/12/24 04:14:12;;;;;;;1.27;0.50;;;7.90;43.90;;;;;;5013038;28;20049;-73
2020/12/24 04:16:39;;;;;;;3.70;0.40;;;7.90;47.00;;;;;;5011102;28;20054;-72
2020/12/24 04:19:06;;;;;;;1.52;0.28;;;7.90;45.90;;;;;;5011083;28;20408;-73
2020/12/24 04:21:34;;;;;;;4.90;0.50;;;7.90;45.50;;;;;;5009860;28;20068;-70
2020/12/24 04:24:00;;;;;;;0.47;0.15;;;7.90;47.40;;;;;;5010737;28;20476;-72
2020/12/24 04:26:27;;;;;;;0.80;0.43;;;7.90;48.70;;;;;;5006714;28;20054;-72
2020/12/24 04:28:54;;;;;;;0.55;0.35;;;7.90;48.70;;;;;;5012098;28;20057;-72
2020/12/24 04:31:21;;;;;;;0.95;0.40;;;7.90;47.90;;;;;;5012209;28;20068;-72
2020/12/24 04:33:48;;;;;;;0.98;0.28;;;8.00;45.30;;;;;;5011449;28;20049;-72
2020/12/24 04:36:15;;;;;;;2.95;0.40;;;7.90;46.70;;;;;;5007574;28;20068;-72
2020/12/24 04:38:43;;;;;;;1.95;0.40;;;7.90;45.90;;;;;;5010595;28;20049;-71
2020/12/24 04:41:11;;;;;;;0.50;0.25;;;8.00;44.10;;;;;;5012103;28;20413;-71
2020/12/24 04:43:38;;;;;;;1.63;0.50;;;8.00;42.90;;;;;;5012287;28;20060;-72
2020/12/24 04:46:07;;;;;;;1.15;0.40;;;7.90;43.90;;;;;;5010545;28;20046;-72
2020/12/24 04:48:34;;;;;;;2.35;0.70;;;7.80;43.40;;;;;;5011666;28;20623;-72
2020/12/24 04:51:17;;;;;;;1.75;0.45;;;7.80;44.10;;;;;;5009992;28;20085;-72
2020/12/24 04:53:45;;;;;;;2.83;0.45;;;7.80;42.10;;;;;;5009307;28;20049;-71
2020/12/24 04:56:12;;;;;;;3.67;0.57;;;7.90;40.40;;;;;;5008141;28;20516;-72
2020/12/24 04:58:41;;;;;;;1.05;0.32;;;8.00;40.50;;;;;;5011054;28;20046;-71
2020/12/24 05:01:14;;;;;;;3.05;0.40;;;8.10;35.40;;;;;;5008952;28;20042;-71
2020/12/24 05:03:41;;;;;;;1.95;0.52;;;8.20;32.20;;;;;;5009525;28;20047;-71
2020/12/24 05:06:14;;;;;;;2.63;0.40;;;8.20;31.30;;;;;;5011164;28;20046;-71
2020/12/24 05:08:42;;;;;;;0.73;0.30;;;8.20;33.70;;;;;;5011239;28;20058;-71
2020/12/24 05:11:09;;;;;;;1.40;0.40;;;8.20;35.70;;;;;;5010199;28;20042;-71
2020/12/24 05:13:36;;;;;;;3.67;0.65;;;8.20;35.00;;;;;;5009288;28;20045;-70
2020/12/24 05:16:16;;;;;;;4.28;0.70;;;8.20;36.70;;;;;;5008310;28;20602;-71
2020/12/24 05:18:43;;;;;;;0.80;0.20;;;8.00;43.40;;;;;;5010959;28;20049;-71
2020/12/24 05:21:10;;;;;;;2.13;0.40;;;7.90;47.00;;;;;;5009395;28;20481;-70
2020/12/24 05:23:37;;;;;;;2.72;0.38;;;7.80;50.50;;;;;;5013275;28;20049;-72
2020/12/24 05:26:19;;;;;;;2.58;0.50;;;7.60;53.70;;;;;;5010784;28;20045;-69
2020/12/24 05:28:46;;;;;;;2.55;1.33;;;7.50;57.00;;;;;;5013135;28;20977;-71
2020/12/24 05:31:31;;;;;;;0.95;0.40;;;7.40;59.40;;;;;;5009091;28;20049;-72
2020/12/24 05:33:58;;;;;;;2.17;0.47;;;7.40;57.70;;;;;;5007913;28;20054;-72
2020/12/24 05:36:24;;;;;;;7.25;0.93;;;7.30;58.40;;;;;;5005686;28;20077;-70
2020/12/24 05:38:52;;;;;;;1.55;0.55;;;7.30;60.20;;;;;;5014394;28;20135;-71
2020/12/24 05:41:31;;;;;;;2.78;0.50;;;7.20;61.30;;;;;;5009569;28;20049;-72
2020/12/24 05:43:59;;;;;;;1.10;0.65;;;7.20;62.10;;;;;;5005884;28;20068;-71
2020/12/24 05:46:28;;;;;;;3.92;1.00;;;7.20;59.60;;;;;;5004894;28;20050;-71
2020/12/24 05:48:55;;;;;;;1.98;0.80;;;7.10;59.90;;;;;;5011308;28;20053;-71
2020/12/24 05:51:22;;;;;;;2.13;0.75;;;7.00;61.40;;;;;;5009759;28;20515;-70
2020/12/24 05:53:49;;;;;;;1.63;0.80;;;6.80;62.90;;;;;;5008659;28;20054;-71
2020/12/24 05:56:20;;;;;;;2.20;0.50;;;6.80;63.80;;;;;;5003717;28;20500;-71
2020/12/24 05:58:49;;;;;;;2.92;0.63;;;6.80;63.80;;;;;;5012129;28;20052;-71
2020/12/24 06:01:17;;;;;;;2.35;0.55;;;6.90;63.40;;;;;;5012370;28;20866;-72
2020/12/24 06:04:02;;;;;;;1.73;0.70;;;7.00;61.30;;;;;;5007551;28;20390;-71
2020/12/24 06:06:45;;;;;;;1.10;0.47;;;7.10;58.60;;;;;;5004290;28;20049;-70
2020/12/24 06:09:19;;;;;;;2.60;0.50;;;7.10;57.30;;;;;;5010060;28;20064;-70
2020/12/24 06:11:48;;;;;;;1.67;0.98;;;7.10;58.10;;;;;;5009908;28;20054;-70
2020/12/24 06:14:30;;;;;;;2.55;0.82;;;7.10;58.10;;;;;;5009152;28;20073;-70
2020/12/24 06:17:03;;;;;;;2.78;0.60;;;7.10;58.00;;;;;;5006947;28;20053;-70
2020/12/24 06:19:36;;;;;;;2.55;0.40;;;7.10;58.40;;;;;;5010204;28;20148;-70
2020/12/24 06:22:13;;;;;;;4.53;0.63;;;7.20;57.20;;;;;;5008998;28;20455;-71
2020/12/24 06:24:42;;;;;;;4.25;0.50;;;7.30;55.60;;;;;;5009282;28;20073;-70
2020/12/24 06:27:20;;;;;;;3.88;0.60;;;7.30;53.50;;;;;;5008731;28;20493;-70
2020/12/24 06:29:50;;;;;;;3.60;1.50;;;7.40;53.70;;;;;;5009246;28;20617;-70
2020/12/24 06:32:19;;;;;;;1.63;0.70;;;7.40;51.20;;;;;;5009369;28;20983;-71
2020/12/24 06:34:46;;;;;;;1.65;0.65;;;7.40;50.30;;;;;;5008700;28;20134;-70
2020/12/24 06:37:16;;;;;;;1.85;0.63;;;7.40;49.30;;;;;;5007765;28;20071;-70
2020/12/24 06:39:45;;;;;;;1.40;0.40;;;7.50;46.90;;;;;;5011251;28;20139;-71
2020/12/24 06:42:40;;;;;;;2.30;0.73;;;7.50;46.60;;;;;;5006525;28;20046;-71
2020/12/24 06:45:10;;;;;;;3.80;1.02;;;7.50;46.20;;;;;;5006067;28;20061;-70
2020/12/24 06:47:37;;;;;;;1.58;0.70;;;7.60;45.10;;;;;;5010426;28;20042;-70
2020/12/24 06:50:36;;;;;;;2.00;0.95;;;7.50;44.30;;;;;;5009212;28;20050;-70
2020/12/24 06:53:22;;;;;;;1.40;0.77;;;7.50;42.20;;;;;;4989570;28;20061;-70
2020/12/24 06:56:17;;;;;;;1.58;0.45;;;7.60;43.10;;;;;;5004125;28;20053;-71
2020/12/24 06:58:45;;;;;;;3.97;0.90;;;7.60;42.10;;;;;;5009024;28;20046;-70
2020/12/24 07:01:17;;;;;;;5.03;1.08;;;7.60;43.20;;;;;;5009149;28;20449;-70
2020/12/24 07:03:44;;;;;;;3.90;1.02;;;7.60;41.60;;;;;;5009613;28;20045;-71
2020/12/24 07:06:11;;;;;;;3.22;0.68;;;7.60;41.80;;;;;;5006262;28;20430;-72
2020/12/24 07:08:48;;;;;;;3.22;0.80;;;7.60;41.70;;;;;;5007538;28;20504;-70
2020/12/24 07:11:40;;;;;;;3.30;0.70;;;7.60;42.20;;;;;;5006784;28;20906;-71
2020/12/24 07:14:22;;;;;;;5.25;0.73;;;7.60;42.90;;;;;;5010707;28;20472;-71
2020/12/24 07:16:52;;;;;;;2.80;0.77;;;7.60;42.50;;;;;;5007143;28;20058;-71
2020/12/24 07:19:19;;;;;;;3.03;0.80;;;7.60;44.40;;;;;;5008136;28;20164;-70
2020/12/24 07:21:48;;;;;;;2.72;0.88;;;7.60;44.70;;;;;;5006957;28;20050;-71
2020/12/24 07:24:16;;;;;;;2.58;0.80;;;7.60;43.40;;;;;;5008966;28;20057;-71
2020/12/24 07:26:44;;;;;;;1.05;0.60;;;7.60;42.00;;;;;;5003780;28;20045;-70
2020/12/24 07:29:13;;;;;;;1.95;0.82;;;7.70;42.70;;;;;;5009120;28;20050;-70
2020/12/24 07:31:41;;;;;;;3.42;0.80;;;7.70;41.10;;;;;;5013987;28;20048;-71
2020/12/24 07:34:08;;;;;;;4.60;1.05;;;7.70;40.30;;;;;;5014689;28;20045;-73
2020/12/24 07:36:35;;;;;;;2.45;0.63;;;7.70;41.00;;;;;;5008919;28;20054;-70
2020/12/24 07:39:02;;;;;;;2.78;0.60;;;7.80;40.00;;;;;;5010699;28;20046;-70
2020/12/24 07:41:29;;;;;;;3.78;0.90;;;7.80;39.00;;;;;;5019479;28;20049;-72
2020/12/24 07:43:56;;;;;;;3.58;0.55;;;7.80;38.80;;;;;;5006772;28;20057;-72
2020/12/24 07:46:23;;;;;;;7.28;1.20;;;7.80;40.80;;;;;;5012459;28;20052;-70
2020/12/24 07:48:49;;;;;;;3.85;1.15;;;7.90;37.30;;;;;;5015589;28;20065;-69
2020/12/24 07:51:17;;;;;;;3.33;0.77;;;8.00;35.00;;;;;;5010906;28;20046;-75
2020/12/24 07:53:44;;;;;;;3.63;1.00;;;8.00;34.70;;;;;;5016873;28;20041;-73
2020/12/24 07:56:11;;;;;;;2.15;0.90;;;8.10;32.10;;;;;;5015559;28;21330;-70
2020/12/24 07:58:39;;;;;;;4.82;1.20;;;8.10;33.10;;;;;;5013611;28;20050;-72
2020/12/24 08:01:06;;;;;;;3.95;1.15;;;8.10;29.70;;;;;;5009117;28;20046;-71
2020/12/24 08:03:33;;;;;;;2.85;0.85;;;8.20;29.60;;;;;;5010900;28;20144;-70
2020/12/24 08:06:05;;;;;;;2.92;0.93;;;8.20;29.70;;;;;;5012529;28;20054;-71
2020/12/24 08:08:35;;;;;;;4.65;1.05;;;8.20;29.70;;;;;;5012523;28;20057;-71
2020/12/24 08:11:06;;;;;;;6.40;1.10;;;8.20;27.00;;;;;;5010594;28;20571;-71
2020/12/24 08:13:33;;;;;;;3.45;1.08;;;8.20;26.30;;;;;;5014328;28;20053;-71
2020/12/24 08:16:01;;;;;;;3.67;1.00;;;8.20;25.30;;;;;;5006562;28;20046;-72
2020/12/24 08:18:35;;;;;;;5.70;0.93;;;8.10;25.30;;;;;;5011842;28;20041;-72
2020/12/24 08:21:10;;;;;;;5.25;1.15;;;8.10;25.20;;;;;;5011747;28;20057;-72
2020/12/24 08:23:48;;;;;;;3.50;1.02;;;8.10;25.00;;;;;;5010917;28;20060;-79
2020/12/24 08:26:18;;;;;;;2.17;0.90;;;8.20;25.10;;;;;;5011654;28;20053;-74
2020/12/24 08:28:54;;;;;;;3.42;1.00;;;8.10;25.00;;;;;;5025956;28;20049;-77
2020/12/24 08:31:22;;;;;;;3.60;1.00;;;8.10;24.30;;;;;;5014628;28;20065;-73
2020/12/24 08:33:51;;;;;;;6.10;1.15;;;8.10;24.30;;;;;;5023365;28;20056;-72
2020/12/24 08:36:20;;;;;;;9.27;1.52;;;8.10;23.80;;;;;;5016020;28;20049;-70
2020/12/24 08:38:48;;;;;;;3.30;1.40;;;8.10;24.30;;;;;;5017859;28;20046;-72
2020/12/24 08:41:22;;;;;;;3.75;1.00;;;8.10;25.00;;;;;;5014531;28;20064;-73
2020/12/24 08:43:53;;;;;;;2.92;0.80;;;8.00;25.00;;;;;;5023837;28;20423;-69
2020/12/24 08:46:21;;;;;;;4.60;1.10;;;8.10;23.60;;;;;;5014310;28;20054;-70
2020/12/24 08:48:48;;;;;;;3.13;0.73;;;8.10;23.90;;;;;;5020732;28;20416;-70
2020/12/24 08:51:17;;;;;;;2.38;1.10;;;8.10;23.10;;;;;;5012112;28;20085;-72
2020/12/24 08:54:06;;;;;;;6.45;1.10;;;8.10;24.10;;;;;;5023406;28;20705;-70
2020/12/24 08:56:34;;;;;;;3.40;0.80;;;8.10;24.40;;;;;;5010009;28;20041;-71
2020/12/24 08:59:07;;;;;;;2.72;0.63;;;8.10;24.00;;;;;;5012752;28;20056;-71
2020/12/24 09:01:38;;;;;;;1.67;0.75;;;8.10;22.40;;;;;;5012265;28;20495;-70
2020/12/24 09:04:11;;;;;;;4.38;0.80;;;8.10;22.80;;;;;;5011407;28;20521;-71
2020/12/24 09:06:38;;;;;;;1.15;0.65;;;8.10;22.90;;;;;;5008861;28;20050;-71
2020/12/24 09:09:06;;;;;;;4.13;0.68;;;8.00;22.60;;;;;;5011553;28;20068;-71
2020/12/24 09:11:33;;;;;;;1.58;0.60;;;8.00;23.30;;;;;;5011094;28;20049;-71
2020/12/24 09:14:02;;;;;;;2.88;0.70;;;8.00;22.80;;;;;;5010520;28;20057;-71
2020/12/24 09:16:31;;;;;;;2.33;0.50;;;8.00;22.20;;;;;;5008409;28;20050;-71
2020/12/24 09:19:05;;;;;;;1.55;0.60;;;8.00;23.60;;;;;;5012552;28;20045;-71
2020/12/24 09:21:33;;;;;;;1.27;0.60;;;8.00;23.10;;;;;;5008491;28;20056;-71
2020/12/24 09:24:11;;;;;;;2.03;0.52;;;8.00;22.70;;;;;;5010765;28;20076;-71
2020/12/24 09:26:45;;;;;;;0.93;0.40;;;8.00;23.40;;;;;;5007607;28;20065;-71
2020/12/24 09:29:12;;;;;;;2.00;0.52;;;8.00;22.20;;;;;;5011533;28;20060;-71
2020/12/24 09:31:39;;;;;;;1.80;0.50;;;8.00;22.20;;;;;;5018285;28;20046;-73
2020/12/24 09:34:07;;;;;;;1.58;0.43;;;8.00;22.70;;;;;;5017031;28;20057;-70
2020/12/24 09:36:34;;;;;;;2.60;0.40;;;8.00;23.30;;;;;;5011106;28;20042;-70
2020/12/24 09:39:01;;;;;;;0.63;0.30;;;8.00;23.00;;;;;;5019387;28;20061;-71
2020/12/24 09:41:29;;;;;;;0.63;0.32;;;8.00;22.40;;;;;;5009078;28;20120;-72
2020/12/24 09:43:56;;;;;;;1.20;0.30;;;8.10;23.60;;;;;;5021401;28;20121;-72
2020/12/24 09:46:24;;;;;;;2.22;0.40;;;8.00;22.60;;;;;;5013216;28;20056;-70
2020/12/24 09:48:51;;;;;;;1.92;0.57;;;8.10;23.30;;;;;;5020155;28;20050;-75
2020/12/24 09:51:18;;;;;;;2.28;0.45;;;8.10;23.10;;;;;;5010001;28;20084;-70
2020/12/24 09:53:45;;;;;;;2.17;0.75;;;8.10;22.90;;;;;;5014583;28;21301;-70
2020/12/24 09:56:16;;;;;;;1.20;0.50;;;8.10;23.20;;;;;;5011828;28;20052;-71
2020/12/24 09:58:44;;;;;;;1.17;0.40;;;8.10;23.70;;;;;;5015140;28;20496;-71
2020/12/24 10:01:11;;;;;;;1.92;0.40;;;8.20;23.20;;;;;;5011265;28;20046;-71
2020/12/24 10:03:38;;;;;;;0.95;0.47;;;8.20;22.80;;;;;;5010132;28;20050;-71
2020/12/24 10:06:04;;;;;;;1.00;0.63;;;8.30;22.30;;;;;;5012256;28;20041;-71
2020/12/24 10:08:31;;;;;;;6.82;0.50;;;8.30;22.90;;;;;;5010701;28;20708;-71
2020/12/24 10:10:58;;;;;;;9.85;0.60;;;8.40;22.70;;;;;;5009250;28;20049;-71
2020/12/24 10:13:25;;;;;;;1.02;0.40;;;8.50;23.20;;;;;;5011350;28;20108;-71
2020/12/24 10:15:53;;;;;;;0.90;0.40;;;8.50;22.70;;;;;;5006254;28;20057;-72
2020/12/24 10:18:20;;;;;;;1.45;0.40;;;8.60;21.90;;;;;;5009823;28;20038;-71
2020/12/24 10:20:47;;;;;;;0.80;0.30;;;8.70;22.90;;;;;;5011806;28;20056;-71
2020/12/24 10:23:13;;;;;;;1.00;0.40;;;8.70;22.00;;;;;;5009434;28;20045;-71
2020/12/24 10:25:40;;;;;;;1.75;0.50;;;8.70;22.00;;;;;;5010018;28;20049;-73
2020/12/24 10:28:07;;;;;;;1.38;0.47;;;8.80;21.80;;;;;;5009937;28;20057;-71
2020/12/24 10:30:34;;;;;;;0.88;0.47;;;8.70;22.80;;;;;;5009041;28;20050;-71
2020/12/24 10:33:02;;;;;;;2.08;0.50;;;8.80;22.50;;;;;;5011186;28;20050;-72
2020/12/24 10:35:30;;;;;;;2.80;0.32;;;8.80;22.80;;;;;;5007105;28;20096;-71
2020/12/24 10:37:58;;;;;;;1.80;0.30;;;8.80;23.00;;;;;;5011869;28;20042;-72
2020/12/24 10:40:25;;;;;;;2.25;0.50;;;8.70;21.00;;;;;;5011664;28;20292;-72
2020/12/24 10:42:52;;;;;;;1.70;0.30;;;8.80;21.70;;;;;;5010246;28;20072;-71
2020/12/24 10:45:18;;;;;;;0.32;0.20;;;8.80;21.10;;;;;;5006138;28;20412;-72
2020/12/24 10:47:45;;;;;;;2.78;0.50;;;8.80;21.40;;;;;;5012237;28;20052;-71
2020/12/24 10:50:14;;;;;;;1.58;0.40;;;8.70;21.20;;;;;;5009986;28;20055;-72
2020/12/24 10:52:41;;;;;;;2.58;0.40;;;8.80;21.40;;;;;;5008614;28;20065;-71
2020/12/24 10:55:09;;;;;;;0.88;0.45;;;8.80;20.80;;;;;;5005426;28;20085;-72
2020/12/24 10:57:36;;;;;;;2.22;0.40;;;8.90;20.30;;;;;;5011072;28;20106;-72
2020/12/24 11:00:04;;;;;;;0.88;0.40;;;8.90;20.80;;;;;;5010735;28;20078;-71
2020/12/24 11:02:31;;;;;;;0.70;0.22;;;9.00;20.80;;;;;;5009494;28;20041;-71
2020/12/24 11:12:26;;;;;;;1.67;0.40;;;9.20;18.70;;;;;;5004529;28;20029;-72
2020/12/24 11:14:53;;;;;;;0.68;0.40;;;9.30;18.80;;;;;;5005952;28;20133;-72
2020/12/24 11:17:20;;;;;;;1.85;0.40;;;9.50;17.90;;;;;;5009909;28;20063;-73
2020/12/24 11:19:47;;;;;;;1.20;0.40;;;9.50;16.50;;;;;;5012360;28;20045;-72
2020/12/24 11:22:14;;;;;;;0.52;0.32;;;9.60;15.70;;;;;;5007814;28;20057;-71
2020/12/24 11:24:41;;;;;;;0.82;0.40;;;9.50;15.90;;;;;;5008557;28;20435;-72
2020/12/24 11:27:08;;;;;;;2.08;0.50;;;9.50;15.70;;;;;;5010907;28;20049;-71
2020/12/24 11:29:36;;;;;;;0.40;0.20;;;9.60;15.60;;;;;;5016307;28;20045;-72
2020/12/24 11:32:03;;;;;;;2.28;0.40;;;9.60;14.90;;;;;;5011759;28;20137;-71
2020/12/24 11:34:31;;;;;;;1.27;0.35;;;9.40;15.40;;;;;;5010845;28;20523;-72
2020/12/24 11:36:59;;;;;;;2.60;0.57;;;9.40;15.60;;;;;;5014093;28;20535;-71
2020/12/24 11:39:26;;;;;;;1.95;0.30;;;9.30;16.20;;;;;;5014372;28;20038;-71
2020/12/24 11:41:55;;;;;;;0.88;0.40;;;9.40;16.20;;;;;;5013043;28;20474;-71
2020/12/24 11:44:22;;;;;;;0.60;0.30;;;9.40;16.20;;;;;;5009972;28;20582;-71
2020/12/24 11:46:50;;;;;;;0.73;0.20;;;9.50;15.30;;;;;;5011345;28;20057;-71
2020/12/24 11:49:17;;;;;;;0.90;0.40;;;9.50;15.40;;;;;;5013516;28;20124;-71
2020/12/24 11:51:43;;;;;;;3.92;1.17;;;9.50;15.30;;;;;;5016917;28;20132;-72
2020/12/24 11:54:10;;;;;;;0.90;0.60;;;9.50;15.40;;;;;;5014601;28;20053;-70
2020/12/24 11:56:37;;;;;;;2.55;0.40;;;9.60;15.80;;;;;;5015996;28;20053;-72
2020/12/24 11:59:05;;;;;;;0.40;0.20;;;9.60;15.50;;;;;;5018858;28;20089;-72
2020/12/24 12:01:32;;;;;;;1.65;0.40;;;9.60;14.80;;;;;;5021214;28;20046;-71
2020/12/24 12:04:00;;;;;;;2.33;0.40;;;9.60;13.90;;;;;;5010167;28;20179;-71
2020/12/24 12:06:28;;;;;;;0.63;0.13;;;9.60;14.40;;;;;;5020868;28;20050;-72
2020/12/24 12:08:55;;;;;;;0.40;0.15;;;9.50;13.10;;;;;;5019524;28;20069;-70
2020/12/24 12:11:22;;;;;;;1.65;0.20;;;9.60;13.30;;;;;;5019399;28;20156;-73
2020/12/24 12:13:50;;;;;;;0.35;0.10;;;9.60;13.40;;;;;;5012567;28;20065;-69
2020/12/24 12:16:22;;;;;;;1.45;0.30;;;9.60;12.60;;;;;;5018535;28;20132;-71
2020/12/24 12:18:49;;;;;;;1.10;0.43;;;9.60;13.90;;;;;;5015986;28;20053;-71
2020/12/24 12:21:18;;;;;;;1.05;0.30;;;9.70;13.50;;;;;;5022118;28;20084;-70
2020/12/24 12:23:45;;;;;;;0.35;0.30;;;9.70;13.00;;;;;;5016512;28;20697;-71
2020/12/24 12:26:12;;;;;;;0.30;0.20;;;9.60;13.00;;;;;;5022131;28;20045;-72
2020/12/24 12:28:41;;;;;;;3.95;0.30;;;9.50;12.50;;;;;;5016062;28;20144;-72
2020/12/24 12:31:14;;;;;;;1.13;0.30;;;9.60;13.50;;;;;;5010531;28;20045;-72
2020/12/24 12:33:41;;;;;;;1.40;0.50;;;9.70;13.10;;;;;;5010960;28;20057;-71
2020/12/24 12:36:08;;;;;;;3.80;0.30;;;9.60;12.50;;;;;;5010735;28;20061;-75
2020/12/24 12:38:35;;;;;;;1.40;0.43;;;9.60;11.90;;;;;;5010741;28;20065;-72
2020/12/24 12:41:02;;;;;;;0.95;0.50;;;9.70;12.00;;;;;;5009835;28;20100;-69
2020/12/24 12:43:30;;;;;;;0.50;0.20;;;9.70;11.90;;;;;;5011423;28;20081;-71
2020/12/24 12:45:57;;;;;;;0.80;0.32;;;9.70;12.00;;;;;;5011613;28;20353;-72
2020/12/24 12:48:23;;;;;;;0.65;0.20;;;9.60;12.00;;;;;;5007634;28;20045;-73
2020/12/24 12:50:50;;;;;;;2.17;0.57;;;9.70;12.00;;;;;;5009166;28;20050;-71
2020/12/24 12:53:18;;;;;;;0.70;0.40;;;9.80;12.10;;;;;;5010806;28;20049;-71
2020/12/24 12:55:45;;;;;;;0.60;0.30;;;9.80;12.10;;;;;;5005649;28;20049;-71
2020/12/24 12:58:12;;;;;;;1.17;0.32;;;9.80;12.10;;;;;;5005589;28;20068;-72
2020/12/24 13:00:39;;;;;;;1.17;0.40;;;9.70;12.00;;;;;;5009368;28;20053;-71
2020/12/24 13:03:06;;;;;;;0.57;0.20;;;9.70;12.00;;;;;;5013498;28;20069;-72
2020/12/24 13:05:33;;;;;;;1.92;0.20;;;9.60;11.90;;;;;;5004693;28;20049;-74
2020/12/24 13:08:00;;;;;;;0.98;0.20;;;9.50;12.30;;;;;;5011037;28;20052;-73
2020/12/24 13:10:28;;;;;;;0.45;0.22;;;9.50;13.10;;;;;;5009274;28;20449;-72